sensor_id;sensor_type;location;lat;lon;timestamp;pressure;altitude;pressure_sealevel;temperature;humidity
69127;BME280;56688;50.234;19.292;2023-06-04T00:02:19;98947.45;;;5.08;71.99
69127;BME280;56688;50.234;19.292;2023-06-04T00:04:45;98944.59;;;5.04;72.29
69127;BME280;56688;50.234;19.292;2023-06-04T00:07:13;98942.16;;;5.00;72.15
69127;BME280;56688;50.234;19.292;2023-06-04T00:09:39;98939.50;;;4.98;72.48
69127;BME280;56688;50.234;19.292;2023-06-04T00:12:06;98937.70;;;4.98;72.31
69127;BME280;56688;50.234;19.292;2023-06-04T00:14:33;98926.96;;;4.96;72.60
69127;BME280;56688;50.234;19.292;2023-06-04T00:17:00;98927.02;;;4.99;72.75
69127;BME280;56688;50.234;19.292;2023-06-04T00:19:27;98921.51;;;5.00;72.60
69127;BME280;56688;50.234;19.292;2023-06-04T00:21:54;98922.02;;;5.00;72.53
69127;BME280;56688;50.234;19.292;2023-06-04T00:24:22;98914.14;;;4.97;72.26
69127;BME280;56688;50.234;19.292;2023-06-04T00:26:49;98917.60;;;4.96;72.33
69127;BME280;56688;50.234;19.292;2023-06-04T00:29:16;98914.30;;;4.92;72.48
69127;BME280;56688;50.234;19.292;2023-06-04T00:31:42;98911.98;;;4.88;72.70
69127;BME280;56688;50.234;19.292;2023-06-04T00:34:10;98908.02;;;4.86;72.85
69127;BME280;56688;50.234;19.292;2023-06-04T00:36:39;98910.00;;;4.85;72.98
69127;BME280;56688;50.234;19.292;2023-06-04T00:39:06;98914.48;;;4.88;73.49
69127;BME280;56688;50.234;19.292;2023-06-04T00:41:33;98916.64;;;4.91;73.85
69127;BME280;56688;50.234;19.292;2023-06-04T00:43:59;98915.63;;;4.96;74.49
69127;BME280;56688;50.234;19.292;2023-06-04T00:46:28;98909.55;;;4.99;74.40
69127;BME280;56688;50.234;19.292;2023-06-04T00:48:56;98910.83;;;5.01;74.15
69127;BME280;56688;50.234;19.292;2023-06-04T00:51:23;98911.89;;;5.01;73.97
69127;BME280;56688;50.234;19.292;2023-06-04T00:53:50;98915.05;;;4.99;73.86
69127;BME280;56688;50.234;19.292;2023-06-04T00:56:18;98913.30;;;4.97;74.12
69127;BME280;56688;50.234;19.292;2023-06-04T00:58:45;98911.83;;;4.96;74.34
69127;BME280;56688;50.234;19.292;2023-06-04T01:01:22;98909.80;;;4.94;74.15
69127;BME280;56688;50.234;19.292;2023-06-04T01:03:55;98909.53;;;4.94;73.93
69127;BME280;56688;50.234;19.292;2023-06-04T01:06:43;98906.31;;;4.96;73.84
69127;BME280;56688;50.234;19.292;2023-06-04T01:09:10;98898.20;;;5.00;73.87
69127;BME280;56688;50.234;19.292;2023-06-04T01:11:39;98900.23;;;5.01;74.06
69127;BME280;56688;50.234;19.292;2023-06-04T01:14:08;98898.48;;;5.01;73.92
69127;BME280;56688;50.234;19.292;2023-06-04T01:16:45;98898.63;;;4.99;73.66
69127;BME280;56688;50.234;19.292;2023-06-04T01:22:04;98902.24;;;4.94;73.74
69127;BME280;56688;50.234;19.292;2023-06-04T01:24:41;98901.23;;;4.92;73.90
69127;BME280;56688;50.234;19.292;2023-06-04T01:27:10;98901.18;;;4.91;74.07
69127;BME280;56688;50.234;19.292;2023-06-04T01:29:37;98900.17;;;4.90;74.33
69127;BME280;56688;50.234;19.292;2023-06-04T01:32:04;98897.86;;;4.81;74.33
69127;BME280;56688;50.234;19.292;2023-06-04T01:34:43;98897.08;;;4.84;74.26
69127;BME280;56688;50.234;19.292;2023-06-04T01:37:10;98899.94;;;4.91;74.02
69127;BME280;56688;50.234;19.292;2023-06-04T01:39:38;98901.70;;;4.91;74.56
69127;BME280;56688;50.234;19.292;2023-06-04T01:42:05;98900.41;;;4.90;74.35
69127;BME280;56688;50.234;19.292;2023-06-04T01:44:32;98900.38;;;4.90;74.57
69127;BME280;56688;50.234;19.292;2023-06-04T01:46:59;98902.11;;;4.88;75.15
69127;BME280;56688;50.234;19.292;2023-06-04T01:49:26;98900.31;;;4.87;75.08
69127;BME280;56688;50.234;19.292;2023-06-04T01:51:53;98902.48;;;4.88;75.54
69127;BME280;56688;50.234;19.292;2023-06-04T01:54:22;98897.96;;;4.91;75.50
69127;BME280;56688;50.234;19.292;2023-06-04T01:56:48;98900.70;;;4.95;75.73
69127;BME280;56688;50.234;19.292;2023-06-04T01:59:16;98902.80;;;4.98;75.25
69127;BME280;56688;50.234;19.292;2023-06-04T02:01:43;98897.42;;;4.99;75.58
69127;BME280;56688;50.234;19.292;2023-06-04T02:04:09;98895.52;;;5.02;75.57
69127;BME280;56688;50.234;19.292;2023-06-04T02:06:36;98893.94;;;5.04;75.49
69127;BME280;56688;50.234;19.292;2023-06-04T02:09:03;98894.27;;;5.04;75.96
69127;BME280;56688;50.234;19.292;2023-06-04T02:11:30;98893.79;;;5.02;76.01
69127;BME280;56688;50.234;19.292;2023-06-04T02:13:57;98894.74;;;5.01;76.12
69127;BME280;56688;50.234;19.292;2023-06-04T02:16:24;98894.13;;;5.02;76.54
69127;BME280;56688;50.234;19.292;2023-06-04T02:18:51;98890.65;;;5.03;76.72
69127;BME280;56688;50.234;19.292;2023-06-04T02:21:18;98893.30;;;5.09;76.67
69127;BME280;56688;50.234;19.292;2023-06-04T02:23:45;98894.92;;;5.12;76.68
69127;BME280;56688;50.234;19.292;2023-06-04T02:26:12;98894.17;;;5.15;76.68
69127;BME280;56688;50.234;19.292;2023-06-04T02:28:39;98893.59;;;5.19;76.90
69127;BME280;56688;50.234;19.292;2023-06-04T02:31:06;98896.23;;;5.23;76.94
69127;BME280;56688;50.234;19.292;2023-06-04T02:33:33;98896.62;;;5.24;76.92
69127;BME280;56688;50.234;19.292;2023-06-04T02:36:00;98895.34;;;5.25;76.66
69127;BME280;56688;50.234;19.292;2023-06-04T02:38:28;98896.24;;;5.26;76.94
69127;BME280;56688;50.234;19.292;2023-06-04T02:40:55;98897.73;;;5.29;77.19
69127;BME280;56688;50.234;19.292;2023-06-04T02:43:22;98902.16;;;5.37;77.05
69127;BME280;56688;50.234;19.292;2023-06-04T02:45:49;98902.04;;;5.43;77.30
69127;BME280;56688;50.234;19.292;2023-06-04T02:48:15;98896.44;;;5.48;77.29
69127;BME280;56688;50.234;19.292;2023-06-04T02:50:42;98901.67;;;5.53;77.34
69127;BME280;56688;50.234;19.292;2023-06-04T02:53:09;98902.81;;;5.57;77.21
69127;BME280;56688;50.234;19.292;2023-06-04T02:55:36;98901.47;;;5.61;77.06
69127;BME280;56688;50.234;19.292;2023-06-04T02:58:04;98903.45;;;5.64;77.23
69127;BME280;56688;50.234;19.292;2023-06-04T03:00:30;98902.55;;;5.68;77.13
69127;BME280;56688;50.234;19.292;2023-06-04T03:02:58;98895.96;;;5.72;76.96
69127;BME280;56688;50.234;19.292;2023-06-04T03:05:29;98895.88;;;5.78;77.17
69127;BME280;56688;50.234;19.292;2023-06-04T03:08:01;98894.23;;;5.86;77.03
69127;BME280;56688;50.234;19.292;2023-06-04T03:10:29;98894.64;;;5.95;76.97
69127;BME280;56688;50.234;19.292;2023-06-04T03:12:56;98893.41;;;6.04;76.93
69127;BME280;56688;50.234;19.292;2023-06-04T03:15:23;98893.86;;;6.10;76.56
69127;BME280;56688;50.234;19.292;2023-06-04T03:17:50;98893.10;;;6.16;76.54
69127;BME280;56688;50.234;19.292;2023-06-04T03:20:18;98892.88;;;6.24;76.36
69127;BME280;56688;50.234;19.292;2023-06-04T03:22:45;98895.02;;;6.31;76.40
69127;BME280;56688;50.234;19.292;2023-06-04T03:25:12;98895.58;;;6.35;76.34
69127;BME280;56688;50.234;19.292;2023-06-04T03:27:40;98895.87;;;6.42;75.81
69127;BME280;56688;50.234;19.292;2023-06-04T03:30:07;98894.80;;;6.49;75.73
69127;BME280;56688;50.234;19.292;2023-06-04T03:32:51;98901.02;;;6.61;75.93
69127;BME280;56688;50.234;19.292;2023-06-04T03:35:18;98900.59;;;6.74;75.41
69127;BME280;56688;50.234;19.292;2023-06-04T03:37:44;98901.42;;;6.88;75.34
69127;BME280;56688;50.234;19.292;2023-06-04T03:40:12;98904.25;;;7.03;75.46
69127;BME280;56688;50.234;19.292;2023-06-04T03:42:42;98907.84;;;7.14;74.88
69127;BME280;56688;50.234;19.292;2023-06-04T03:45:09;98904.52;;;7.28;74.45
69127;BME280;56688;50.234;19.292;2023-06-04T03:47:38;98904.66;;;7.38;74.23
69127;BME280;56688;50.234;19.292;2023-06-04T03:50:06;98906.18;;;7.49;73.80
69127;BME280;56688;50.234;19.292;2023-06-04T03:52:33;98904.61;;;7.59;73.91
69127;BME280;56688;50.234;19.292;2023-06-04T03:55:00;98905.61;;;7.68;73.22
69127;BME280;56688;50.234;19.292;2023-06-04T03:57:29;98906.22;;;7.78;73.15
69127;BME280;56688;50.234;19.292;2023-06-04T03:59:57;98900.30;;;7.92;72.77
69127;BME280;56688;50.234;19.292;2023-06-04T04:02:24;98901.11;;;8.07;72.46
69127;BME280;56688;50.234;19.292;2023-06-04T04:04:51;98906.41;;;8.23;71.90
69127;BME280;56688;50.234;19.292;2023-06-04T04:07:21;98907.66;;;8.39;71.38
69127;BME280;56688;50.234;19.292;2023-06-04T04:09:51;98906.15;;;8.57;71.47
69127;BME280;56688;50.234;19.292;2023-06-04T04:12:19;98906.63;;;8.72;71.18
69127;BME280;56688;50.234;19.292;2023-06-04T04:14:46;98902.34;;;8.88;70.25
69127;BME280;56688;50.234;19.292;2023-06-04T04:17:14;98899.75;;;9.02;69.82
69127;BME280;56688;50.234;19.292;2023-06-04T04:19:42;98899.20;;;9.17;69.58
69127;BME280;56688;50.234;19.292;2023-06-04T04:22:10;98893.60;;;9.31;69.10
69127;BME280;56688;50.234;19.292;2023-06-04T04:24:37;98897.29;;;9.47;68.47
69127;BME280;56688;50.234;19.292;2023-06-04T04:27:06;98893.73;;;9.64;68.58
69127;BME280;56688;50.234;19.292;2023-06-04T04:29:38;98892.25;;;9.84;67.80
69127;BME280;56688;50.234;19.292;2023-06-04T04:32:06;98893.16;;;10.00;66.98
69127;BME280;56688;50.234;19.292;2023-06-04T04:34:49;98892.00;;;10.23;66.42
69127;BME280;56688;50.234;19.292;2023-06-04T04:37:19;98893.65;;;10.46;66.17
69127;BME280;56688;50.234;19.292;2023-06-04T04:39:49;98895.78;;;10.69;66.01
69127;BME280;56688;50.234;19.292;2023-06-04T04:42:19;98897.88;;;10.90;64.74
69127;BME280;56688;50.234;19.292;2023-06-04T04:44:47;98902.13;;;11.12;63.26
69127;BME280;56688;50.234;19.292;2023-06-04T04:47:16;98897.12;;;11.31;62.72
69127;BME280;56688;50.234;19.292;2023-06-04T04:49:43;98903.48;;;11.53;62.05
69127;BME280;56688;50.234;19.292;2023-06-04T04:52:10;98903.89;;;11.73;61.56
69127;BME280;56688;50.234;19.292;2023-06-04T04:54:38;98903.49;;;11.98;60.66
69127;BME280;56688;50.234;19.292;2023-06-04T04:57:05;98900.80;;;12.29;60.05
69127;BME280;56688;50.234;19.292;2023-06-04T04:59:37;98904.84;;;12.71;58.79
69127;BME280;56688;50.234;19.292;2023-06-04T05:02:05;98901.19;;;13.14;58.01
69127;BME280;56688;50.234;19.292;2023-06-04T05:04:32;98900.04;;;13.54;56.79
69127;BME280;56688;50.234;19.292;2023-06-04T05:06:59;98899.86;;;14.00;55.02
69127;BME280;56688;50.234;19.292;2023-06-04T05:09:26;98898.02;;;14.56;54.33
69127;BME280;56688;50.234;19.292;2023-06-04T05:11:53;98902.04;;;15.22;52.32
69127;BME280;56688;50.234;19.292;2023-06-04T05:14:20;98902.46;;;15.91;49.75
69127;BME280;56688;50.234;19.292;2023-06-04T05:16:47;98899.58;;;16.55;48.20
69127;BME280;56688;50.234;19.292;2023-06-04T05:19:16;98900.19;;;17.13;47.18
69127;BME280;56688;50.234;19.292;2023-06-04T05:21:44;98900.48;;;17.66;46.44
69127;BME280;56688;50.234;19.292;2023-06-04T05:24:11;98901.45;;;18.14;45.62
69127;BME280;56688;50.234;19.292;2023-06-04T05:26:38;98901.55;;;18.56;43.72
69127;BME280;56688;50.234;19.292;2023-06-04T05:29:11;98901.06;;;18.91;42.56
69127;BME280;56688;50.234;19.292;2023-06-04T05:31:40;98901.55;;;19.22;41.49
69127;BME280;56688;50.234;19.292;2023-06-04T05:34:09;98899.83;;;19.38;40.68
69127;BME280;56688;50.234;19.292;2023-06-04T05:36:37;98902.95;;;19.49;39.53
69127;BME280;56688;50.234;19.292;2023-06-04T05:39:05;98904.17;;;19.51;39.72
69127;BME280;56688;50.234;19.292;2023-06-04T05:41:54;98906.34;;;19.46;38.98
69127;BME280;56688;50.234;19.292;2023-06-04T05:44:21;98907.67;;;19.38;39.23
69127;BME280;56688;50.234;19.292;2023-06-04T05:46:48;98906.69;;;19.42;39.49
69127;BME280;56688;50.234;19.292;2023-06-04T05:49:15;98910.38;;;19.52;39.59
69127;BME280;56688;50.234;19.292;2023-06-04T05:51:43;98910.33;;;19.60;38.82
69127;BME280;56688;50.234;19.292;2023-06-04T05:54:11;98910.29;;;19.82;38.98
69127;BME280;56688;50.234;19.292;2023-06-04T05:56:40;98907.84;;;20.17;38.80
69127;BME280;56688;50.234;19.292;2023-06-04T05:59:07;98901.77;;;20.58;37.17
69127;BME280;56688;50.234;19.292;2023-06-04T06:01:34;98902.85;;;20.96;37.11
69127;BME280;56688;50.234;19.292;2023-06-04T06:04:01;98900.91;;;21.37;36.33
69127;BME280;56688;50.234;19.292;2023-06-04T06:06:29;98905.30;;;21.79;35.22
69127;BME280;56688;50.234;19.292;2023-06-04T06:08:56;98902.06;;;22.02;35.12
69127;BME280;56688;50.234;19.292;2023-06-04T06:11:25;98904.41;;;22.32;34.69
69127;BME280;56688;50.234;19.292;2023-06-04T06:13:54;98908.52;;;22.64;34.30
69127;BME280;56688;50.234;19.292;2023-06-04T06:16:21;98908.05;;;23.04;33.40
69127;BME280;56688;50.234;19.292;2023-06-04T06:18:48;98909.98;;;23.48;32.55
69127;BME280;56688;50.234;19.292;2023-06-04T06:21:15;98915.64;;;23.95;29.86
69127;BME280;56688;50.234;19.292;2023-06-04T06:23:42;98910.04;;;24.23;29.64
69127;BME280;56688;50.234;19.292;2023-06-04T06:26:09;98909.31;;;24.66;29.76
69127;BME280;56688;50.234;19.292;2023-06-04T06:28:42;98905.83;;;25.00;28.08
69127;BME280;56688;50.234;19.292;2023-06-04T06:31:09;98907.10;;;25.13;27.58
69127;BME280;56688;50.234;19.292;2023-06-04T06:33:36;98908.59;;;25.20;27.58
69127;BME280;56688;50.234;19.292;2023-06-04T06:36:10;98913.23;;;25.18;26.81
69127;BME280;56688;50.234;19.292;2023-06-04T06:38:39;98913.59;;;25.02;27.38
69127;BME280;56688;50.234;19.292;2023-06-04T06:41:07;98911.00;;;24.97;26.59
69127;BME280;56688;50.234;19.292;2023-06-04T06:43:34;98911.80;;;25.12;26.23
69127;BME280;56688;50.234;19.292;2023-06-04T06:46:01;98915.52;;;25.25;27.15
69127;BME280;56688;50.234;19.292;2023-06-04T06:48:28;98921.91;;;25.44;26.80
69127;BME280;56688;50.234;19.292;2023-06-04T06:50:55;98920.15;;;25.58;25.62
69127;BME280;56688;50.234;19.292;2023-06-04T06:53:22;98922.61;;;25.60;24.98
69127;BME280;56688;50.234;19.292;2023-06-04T06:55:49;98922.16;;;25.60;24.84
69127;BME280;56688;50.234;19.292;2023-06-04T06:58:16;98920.42;;;25.59;25.38
69127;BME280;56688;50.234;19.292;2023-06-04T07:00:42;98919.59;;;25.84;26.39
69127;BME280;56688;50.234;19.292;2023-06-04T07:03:09;98919.45;;;26.23;25.38
69127;BME280;56688;50.234;19.292;2023-06-04T07:05:36;98923.93;;;26.42;24.45
69127;BME280;56688;50.234;19.292;2023-06-04T07:08:03;98916.42;;;26.57;24.73
69127;BME280;56688;50.234;19.292;2023-06-04T07:10:30;98917.63;;;26.64;23.98
69127;BME280;56688;50.234;19.292;2023-06-04T07:12:57;98914.06;;;26.55;23.93
69127;BME280;56688;50.234;19.292;2023-06-04T07:15:24;98918.48;;;26.48;24.14
69127;BME280;56688;50.234;19.292;2023-06-04T07:17:51;98914.17;;;26.45;23.77
69127;BME280;56688;50.234;19.292;2023-06-04T07:20:18;98919.81;;;26.43;23.61
69127;BME280;56688;50.234;19.292;2023-06-04T07:22:45;98910.27;;;26.47;23.86
69127;BME280;56688;50.234;19.292;2023-06-04T07:25:12;98907.60;;;26.65;24.01
69127;BME280;56688;50.234;19.292;2023-06-04T07:27:39;98909.63;;;26.81;23.65
69127;BME280;56688;50.234;19.292;2023-06-04T07:30:06;98906.11;;;26.98;23.92
69127;BME280;56688;50.234;19.292;2023-06-04T07:32:34;98905.08;;;27.22;22.98
69127;BME280;56688;50.234;19.292;2023-06-04T07:35:02;98900.52;;;27.35;22.53
69127;BME280;56688;50.234;19.292;2023-06-04T07:37:29;98903.36;;;27.52;23.19
69127;BME280;56688;50.234;19.292;2023-06-04T07:39:57;98909.16;;;27.78;23.48
69127;BME280;56688;50.234;19.292;2023-06-04T07:42:24;98916.09;;;28.13;22.57
69127;BME280;56688;50.234;19.292;2023-06-04T07:44:50;98916.70;;;28.32;21.91
69127;BME280;56688;50.234;19.292;2023-06-04T07:47:17;98914.22;;;28.33;21.81
69127;BME280;56688;50.234;19.292;2023-06-04T07:49:44;98912.31;;;28.48;21.69
69127;BME280;56688;50.234;19.292;2023-06-04T07:52:27;98915.70;;;28.92;21.36
69127;BME280;56688;50.234;19.292;2023-06-04T07:54:53;98911.09;;;29.17;20.63
69127;BME280;56688;50.234;19.292;2023-06-04T07:57:20;98914.88;;;29.21;20.85
69127;BME280;56688;50.234;19.292;2023-06-04T07:59:49;98912.91;;;29.23;19.80
69127;BME280;56688;50.234;19.292;2023-06-04T08:02:16;98912.23;;;29.37;19.74
69127;BME280;56688;50.234;19.292;2023-06-04T08:04:44;98912.29;;;29.51;19.91
69127;BME280;56688;50.234;19.292;2023-06-04T08:07:12;98913.31;;;29.58;20.67
69127;BME280;56688;50.234;19.292;2023-06-04T08:09:39;98921.42;;;29.78;20.25
69127;BME280;56688;50.234;19.292;2023-06-04T08:12:06;98921.65;;;29.60;19.63
69127;BME280;56688;50.234;19.292;2023-06-04T08:14:36;98923.66;;;29.48;19.70
69127;BME280;56688;50.234;19.292;2023-06-04T08:17:03;98923.05;;;29.58;19.56
69127;BME280;56688;50.234;19.292;2023-06-04T08:19:30;98918.13;;;29.87;20.66
69127;BME280;56688;50.234;19.292;2023-06-04T08:21:57;98917.52;;;30.32;19.71
69127;BME280;56688;50.234;19.292;2023-06-04T08:24:24;98919.70;;;30.52;19.54
69127;BME280;56688;50.234;19.292;2023-06-04T08:26:51;98923.15;;;30.34;19.22
69127;BME280;56688;50.234;19.292;2023-06-04T08:29:18;98920.45;;;30.24;19.09
69127;BME280;56688;50.234;19.292;2023-06-04T08:31:45;98923.09;;;30.22;19.36
69127;BME280;56688;50.234;19.292;2023-06-04T08:34:12;98918.10;;;30.12;18.87
69127;BME280;56688;50.234;19.292;2023-06-04T08:36:39;98916.91;;;29.72;19.43
69127;BME280;56688;50.234;19.292;2023-06-04T08:39:08;98922.74;;;29.13;20.38
69127;BME280;56688;50.234;19.292;2023-06-04T08:41:42;98928.00;;;29.13;20.39
69127;BME280;56688;50.234;19.292;2023-06-04T08:44:10;98923.05;;;29.39;19.83
69127;BME280;56688;50.234;19.292;2023-06-04T08:46:38;98919.32;;;29.41;19.91
69127;BME280;56688;50.234;19.292;2023-06-04T08:49:08;98920.09;;;29.45;19.60
69127;BME280;56688;50.234;19.292;2023-06-04T08:51:36;98922.17;;;29.53;20.05
69127;BME280;56688;50.234;19.292;2023-06-04T08:54:05;98925.08;;;29.66;20.12
69127;BME280;56688;50.234;19.292;2023-06-04T08:56:34;98924.88;;;29.65;20.02
69127;BME280;56688;50.234;19.292;2023-06-04T08:59:03;98928.54;;;29.44;20.78
69127;BME280;56688;50.234;19.292;2023-06-04T09:01:34;98933.96;;;29.35;19.99
69127;BME280;56688;50.234;19.292;2023-06-04T09:04:04;98935.86;;;29.29;20.02
69127;BME280;56688;50.234;19.292;2023-06-04T09:06:37;98929.55;;;29.38;19.65
69127;BME280;56688;50.234;19.292;2023-06-04T09:09:09;98926.23;;;29.50;19.73
69127;BME280;56688;50.234;19.292;2023-06-04T09:11:55;98923.89;;;29.64;19.55
69127;BME280;56688;50.234;19.292;2023-06-04T09:14:23;98922.70;;;29.51;20.29
69127;BME280;56688;50.234;19.292;2023-06-04T09:16:52;98923.98;;;29.49;20.06
69127;BME280;56688;50.234;19.292;2023-06-04T09:19:20;98925.85;;;29.50;20.05
69127;BME280;56688;50.234;19.292;2023-06-04T09:21:53;98930.16;;;29.31;20.63
69127;BME280;56688;50.234;19.292;2023-06-04T09:24:23;98934.45;;;29.28;19.84
69127;BME280;56688;50.234;19.292;2023-06-04T09:26:50;98931.16;;;29.24;20.48
69127;BME280;56688;50.234;19.292;2023-06-04T09:29:18;98925.04;;;29.29;19.93
69127;BME280;56688;50.234;19.292;2023-06-04T09:31:46;98930.79;;;29.30;20.24
69127;BME280;56688;50.234;19.292;2023-06-04T09:34:27;98922.09;;;29.46;20.37
69127;BME280;56688;50.234;19.292;2023-06-04T09:36:55;98925.23;;;29.56;20.15
69127;BME280;56688;50.234;19.292;2023-06-04T09:39:23;98924.11;;;29.41;20.27
69127;BME280;56688;50.234;19.292;2023-06-04T09:42:00;98923.75;;;29.40;20.04
69127;BME280;56688;50.234;19.292;2023-06-04T09:44:29;98911.34;;;29.38;19.32
69127;BME280;56688;50.234;19.292;2023-06-04T09:46:57;98915.27;;;29.43;20.70
69127;BME280;56688;50.234;19.292;2023-06-04T09:49:25;98912.57;;;29.44;20.69
69127;BME280;56688;50.234;19.292;2023-06-04T09:51:52;98909.91;;;29.58;21.44
69127;BME280;56688;50.234;19.292;2023-06-04T09:54:19;98904.80;;;29.76;20.85
69127;BME280;56688;50.234;19.292;2023-06-04T09:56:46;98899.95;;;29.57;19.71
69127;BME280;56688;50.234;19.292;2023-06-04T09:59:13;98907.05;;;29.04;20.54
69127;BME280;56688;50.234;19.292;2023-06-04T10:01:41;98907.50;;;28.94;21.21
69127;BME280;56688;50.234;19.292;2023-06-04T10:04:09;98905.61;;;28.85;21.09
69127;BME280;56688;50.234;19.292;2023-06-04T10:06:39;98901.71;;;28.70;21.03
69127;BME280;56688;50.234;19.292;2023-06-04T10:09:09;98897.33;;;28.66;21.31
69127;BME280;56688;50.234;19.292;2023-06-04T10:11:40;98897.21;;;28.54;20.88
69127;BME280;56688;50.234;19.292;2023-06-04T10:14:20;98898.31;;;28.25;21.49
69127;BME280;56688;50.234;19.292;2023-06-04T10:16:49;98895.95;;;28.02;22.03
69127;BME280;56688;50.234;19.292;2023-06-04T10:19:18;98896.55;;;27.81;22.31
69127;BME280;56688;50.234;19.292;2023-06-04T10:21:45;98897.48;;;27.72;22.26
69127;BME280;56688;50.234;19.292;2023-06-04T10:24:14;98895.23;;;27.58;22.26
69127;BME280;56688;50.234;19.292;2023-06-04T10:26:42;98895.52;;;27.45;23.23
69127;BME280;56688;50.234;19.292;2023-06-04T10:29:09;98893.31;;;27.47;22.56
69127;BME280;56688;50.234;19.292;2023-06-04T10:31:37;98896.21;;;27.42;22.44
69127;BME280;56688;50.234;19.292;2023-06-04T10:34:04;98894.29;;;27.25;22.53
69127;BME280;56688;50.234;19.292;2023-06-04T10:36:43;98891.89;;;27.24;23.51
69127;BME280;56688;50.234;19.292;2023-06-04T10:39:12;98889.52;;;27.36;23.82
69127;BME280;56688;50.234;19.292;2023-06-04T10:41:39;98891.52;;;27.44;23.04
69127;BME280;56688;50.234;19.292;2023-06-04T10:44:06;98895.11;;;27.38;23.12
69127;BME280;56688;50.234;19.292;2023-06-04T10:46:41;98890.61;;;27.37;22.34
69127;BME280;56688;50.234;19.292;2023-06-04T10:49:09;98889.94;;;27.39;22.69
69127;BME280;56688;50.234;19.292;2023-06-04T10:51:38;98892.39;;;27.52;23.38
69127;BME280;56688;50.234;19.292;2023-06-04T10:54:05;98885.42;;;27.69;22.57
69127;BME280;56688;50.234;19.292;2023-06-04T10:56:34;98882.52;;;27.85;22.43
69127;BME280;56688;50.234;19.292;2023-06-04T10:59:14;98891.30;;;27.85;22.57
69127;BME280;56688;50.234;19.292;2023-06-04T11:01:41;98889.04;;;27.71;22.10
69127;BME280;56688;50.234;19.292;2023-06-04T11:04:25;98884.60;;;27.46;23.19
69127;BME280;56688;50.234;19.292;2023-06-04T11:09:29;98884.45;;;27.33;23.54
69127;BME280;56688;50.234;19.292;2023-06-04T11:11:58;98884.33;;;27.33;23.17
69127;BME280;56688;50.234;19.292;2023-06-04T11:14:26;98882.22;;;27.52;22.70
69127;BME280;56688;50.234;19.292;2023-06-04T11:16:53;98877.64;;;27.68;21.19
69127;BME280;56688;50.234;19.292;2023-06-04T11:19:20;98877.46;;;27.94;21.90
69127;BME280;56688;50.234;19.292;2023-06-04T11:21:48;98879.17;;;28.15;21.67
69127;BME280;56688;50.234;19.292;2023-06-04T11:24:16;98879.10;;;28.28;21.82
69127;BME280;56688;50.234;19.292;2023-06-04T11:26:44;98881.26;;;28.40;22.06
69127;BME280;56688;50.234;19.292;2023-06-04T11:29:25;98878.12;;;28.78;21.49
69127;BME280;56688;50.234;19.292;2023-06-04T11:31:52;98876.39;;;29.15;19.84
69127;BME280;56688;50.234;19.292;2023-06-04T11:34:28;98874.43;;;29.27;19.28
69127;BME280;56688;50.234;19.292;2023-06-04T11:36:55;98876.35;;;29.59;19.97
69127;BME280;56688;50.234;19.292;2023-06-04T11:39:22;98866.65;;;30.16;20.64
69127;BME280;56688;50.234;19.292;2023-06-04T11:41:50;98869.70;;;30.84;19.39
69127;BME280;56688;50.234;19.292;2023-06-04T11:44:19;98869.97;;;31.36;19.43
69127;BME280;56688;50.234;19.292;2023-06-04T11:46:47;98867.04;;;31.76;18.74
69127;BME280;56688;50.234;19.292;2023-06-04T11:49:16;98867.01;;;32.21;17.96
69127;BME280;56688;50.234;19.292;2023-06-04T11:51:48;98862.77;;;32.31;18.20
69127;BME280;56688;50.234;19.292;2023-06-04T11:54:16;98857.27;;;32.77;18.46
69127;BME280;56688;50.234;19.292;2023-06-04T11:56:44;98854.84;;;33.36;17.15
69127;BME280;56688;50.234;19.292;2023-06-04T11:59:13;98850.55;;;33.88;17.01
69127;BME280;56688;50.234;19.292;2023-06-04T12:01:41;98849.25;;;34.33;16.95
69127;BME280;56688;50.234;19.292;2023-06-04T12:06:51;98848.30;;;34.88;15.83
69127;BME280;56688;50.234;19.292;2023-06-04T12:09:21;98847.05;;;35.17;16.72
69127;BME280;56688;50.234;19.292;2023-06-04T12:11:49;98841.48;;;35.48;15.91
69127;BME280;56688;50.234;19.292;2023-06-04T12:14:17;98840.15;;;35.55;15.86
69127;BME280;56688;50.234;19.292;2023-06-04T12:19:24;98842.46;;;35.70;16.02
69127;BME280;56688;50.234;19.292;2023-06-04T12:22:08;98852.34;;;35.61;15.97
69127;BME280;56688;50.234;19.292;2023-06-04T12:24:47;98851.98;;;35.39;15.77
69127;BME280;56688;50.234;19.292;2023-06-04T12:27:15;98845.66;;;35.16;15.42
69127;BME280;56688;50.234;19.292;2023-06-04T12:29:42;98845.39;;;34.97;15.64
69127;BME280;56688;50.234;19.292;2023-06-04T12:32:10;98843.16;;;34.87;15.01
69127;BME280;56688;50.234;19.292;2023-06-04T12:34:40;98841.92;;;34.81;15.50
69127;BME280;56688;50.234;19.292;2023-06-04T12:37:08;98840.55;;;34.63;16.14
69127;BME280;56688;50.234;19.292;2023-06-04T12:39:35;98842.41;;;34.22;16.50
69127;BME280;56688;50.234;19.292;2023-06-04T12:42:05;98842.21;;;34.17;15.76
69127;BME280;56688;50.234;19.292;2023-06-04T12:44:35;98838.49;;;34.23;16.35
69127;BME280;56688;50.234;19.292;2023-06-04T12:47:03;98839.85;;;34.45;17.21
69127;BME280;56688;50.234;19.292;2023-06-04T12:49:30;98835.66;;;34.77;16.88
69127;BME280;56688;50.234;19.292;2023-06-04T12:51:57;98836.30;;;34.91;15.34
69127;BME280;56688;50.234;19.292;2023-06-04T12:54:24;98836.98;;;34.89;15.97
69127;BME280;56688;50.234;19.292;2023-06-04T12:56:54;98834.81;;;35.10;16.65
69127;BME280;56688;50.234;19.292;2023-06-04T12:59:27;98838.89;;;35.51;17.87
69127;BME280;56688;50.234;19.292;2023-06-04T13:01:55;98835.66;;;35.92;16.09
69127;BME280;56688;50.234;19.292;2023-06-04T13:04:23;98836.87;;;36.19;15.51
69127;BME280;56688;50.234;19.292;2023-06-04T13:06:50;98837.34;;;36.37;15.57
69127;BME280;56688;50.234;19.292;2023-06-04T13:09:22;98835.36;;;36.42;14.97
69127;BME280;56688;50.234;19.292;2023-06-04T13:11:50;98834.13;;;36.31;15.05